createdAt,value
2017-10-15T00:00:25.455Z,9.98
2017-10-15T00:02:53.029Z,9.94
2017-10-15T00:05:20.659Z,9.92
2017-10-15T00:07:48.224Z,9.89
2017-10-15T00:10:15.800Z,9.87
2017-10-15T00:12:43.396Z,9.84
2017-10-15T00:15:10.969Z,9.80
2017-10-15T00:17:38.564Z,9.76
2017-10-15T00:20:06.142Z,9.72
2017-10-15T00:22:34.103Z,9.69
2017-10-15T00:25:01.677Z,9.69
2017-10-15T00:27:29.349Z,9.68
2017-10-15T00:29:56.928Z,9.65
2017-10-15T00:32:24.490Z,9.64
2017-10-15T00:34:52.076Z,9.62
2017-10-15T00:37:19.646Z,9.61
2017-10-15T00:39:47.236Z,9.57
2017-10-15T00:42:14.805Z,9.55
2017-10-15T00:44:42.771Z,9.52
2017-10-15T00:47:10.345Z,9.50
2017-10-15T00:49:37.907Z,9.46
2017-10-15T00:52:05.517Z,9.42
2017-10-15T00:54:33.094Z,9.39
2017-10-15T00:57:00.675Z,9.36
2017-10-15T00:59:28.331Z,9.34
2017-10-15T01:01:55.930Z,9.33
2017-10-15T01:04:23.846Z,9.31
2017-10-15T01:06:51.543Z,9.32
2017-10-15T01:09:19.123Z,9.31
2017-10-15T01:11:47.513Z,9.30
2017-10-15T01:14:15.107Z,9.29
2017-10-15T01:16:43.083Z,9.29
2017-10-15T01:19:10.654Z,9.27
2017-10-15T01:21:38.201Z,9.23
2017-10-15T01:24:05.831Z,9.22
2017-10-15T01:26:33.405Z,9.19
2017-10-15T01:29:01.906Z,9.15
2017-10-15T01:31:29.649Z,9.11
2017-10-15T01:33:57.549Z,9.09
2017-10-15T01:36:25.461Z,9.10
2017-10-15T01:38:53.090Z,9.11
2017-10-15T01:41:21.771Z,9.11
2017-10-15T01:43:50.589Z,9.10
2017-10-15T01:46:18.159Z,9.09
2017-10-15T01:48:45.743Z,9.09
2017-10-15T01:51:13.315Z,9.09
2017-10-15T01:53:40.869Z,9.09
2017-10-15T01:56:08.752Z,9.06
2017-10-15T01:58:36.713Z,9.03
2017-10-15T02:01:04.259Z,9.02
2017-10-15T02:03:31.837Z,9.00
2017-10-15T02:05:59.391Z,8.97
2017-10-15T02:08:26.966Z,8.96
2017-10-15T02:10:54.528Z,8.96
2017-10-15T02:13:22.401Z,8.95
2017-10-15T02:15:49.962Z,8.94
2017-10-15T02:18:17.536Z,8.88
2017-10-15T02:20:45.120Z,8.88
2017-10-15T02:23:12.678Z,8.87
2017-10-15T02:25:40.261Z,8.84
2017-10-15T02:28:07.825Z,8.83
2017-10-15T02:30:35.860Z,8.82
2017-10-15T02:33:03.454Z,8.80
2017-10-15T02:35:31.043Z,8.78
2017-10-15T02:37:58.637Z,8.76
2017-10-15T02:40:26.210Z,8.67
2017-10-15T02:42:53.784Z,8.64
2017-10-15T02:45:21.345Z,8.64
2017-10-15T02:47:49.471Z,8.64
2017-10-15T02:50:17.478Z,8.62
2017-10-15T02:52:45.504Z,8.59
2017-10-15T02:55:13.082Z,8.57
2017-10-15T02:57:40.785Z,8.54
2017-10-15T03:00:08.353Z,8.53
2017-10-15T03:02:35.912Z,8.54
2017-10-15T03:05:04.143Z,8.52
2017-10-15T03:07:31.727Z,8.49
2017-10-15T03:09:59.722Z,8.40
2017-10-15T03:12:27.406Z,8.37
2017-10-15T03:14:54.965Z,8.35
2017-10-15T03:17:22.557Z,8.35
2017-10-15T03:19:50.129Z,8.35
2017-10-15T03:22:17.743Z,8.36
2017-10-15T03:24:45.296Z,8.32
2017-10-15T03:27:12.911Z,8.32
2017-10-15T03:29:40.466Z,8.28
2017-10-15T03:32:08.040Z,8.23
2017-10-15T03:34:35.611Z,8.22
2017-10-15T03:37:03.206Z,8.23
2017-10-15T03:39:30.853Z,8.22
2017-10-15T03:41:58.406Z,8.20
2017-10-15T03:44:26.382Z,8.20
2017-10-15T03:46:54.050Z,8.21
2017-10-15T03:49:21.659Z,8.18
2017-10-15T03:51:49.225Z,8.16
2017-10-15T03:54:18.531Z,8.14
2017-10-15T03:56:46.098Z,8.13
2017-10-15T03:59:13.761Z,8.12
2017-10-15T04:01:41.409Z,8.10
2017-10-15T04:04:09.651Z,8.08
2017-10-15T04:06:37.226Z,8.07
2017-10-15T04:09:04.794Z,8.05
2017-10-15T04:11:32.540Z,8.07
2017-10-15T04:14:00.138Z,8.05
2017-10-15T04:16:27.728Z,8.04
2017-10-15T04:18:55.293Z,8.05
2017-10-15T04:21:22.848Z,8.03
2017-10-15T04:23:50.468Z,8.02
2017-10-15T04:26:18.036Z,8.01
2017-10-15T04:28:45.620Z,7.97
2017-10-15T04:31:13.173Z,7.89
2017-10-15T04:33:41.092Z,7.84
2017-10-15T04:36:08.662Z,7.87
2017-10-15T04:38:37.680Z,7.86
2017-10-15T04:41:05.252Z,7.88
2017-10-15T04:43:32.805Z,7.90
2017-10-15T04:46:00.410Z,7.89
2017-10-15T04:48:28.444Z,7.89
2017-10-15T04:50:56.010Z,7.91
2017-10-15T04:53:23.578Z,7.92
2017-10-15T04:55:51.599Z,7.93
2017-10-15T04:58:19.164Z,7.93
2017-10-15T05:00:47.061Z,7.95
2017-10-15T05:03:14.654Z,7.95
2017-10-15T05:05:42.204Z,7.97
2017-10-15T05:08:09.790Z,7.99
2017-10-15T05:10:37.394Z,7.98
2017-10-15T05:13:04.983Z,7.98
2017-10-15T05:15:32.552Z,7.99
2017-10-15T05:18:00.096Z,7.97
2017-10-15T05:20:27.685Z,8.00
2017-10-15T05:22:55.249Z,8.01
2017-10-15T05:25:22.869Z,7.98
2017-10-15T05:27:50.436Z,7.98
2017-10-15T05:30:18.038Z,7.96
2017-10-15T05:32:45.606Z,7.91
2017-10-15T05:35:13.558Z,7.89
2017-10-15T05:37:41.133Z,7.92
2017-10-15T05:40:08.726Z,7.96
2017-10-15T05:42:36.272Z,7.94
2017-10-15T05:45:03.820Z,7.92
2017-10-15T05:47:31.579Z,7.91
2017-10-15T05:50:00.406Z,7.87
2017-10-15T05:52:28.018Z,7.88
2017-10-15T05:54:55.565Z,7.89
2017-10-15T05:57:23.153Z,7.87
2017-10-15T05:59:50.741Z,7.80
2017-10-15T06:02:18.331Z,7.75
2017-10-15T06:04:45.887Z,7.72
2017-10-15T06:07:13.487Z,7.71
2017-10-15T06:09:41.272Z,7.70
2017-10-15T06:12:08.827Z,7.68
2017-10-15T06:14:36.415Z,7.68
2017-10-15T06:17:03.968Z,7.68
2017-10-15T06:19:31.547Z,7.74
2017-10-15T06:21:59.110Z,7.82
2017-10-15T06:24:27.277Z,7.91
2017-10-15T06:26:54.854Z,7.95
2017-10-15T06:29:25.248Z,7.98
2017-10-15T06:31:52.879Z,7.96
2017-10-15T06:34:20.472Z,7.98
2017-10-15T06:36:48.056Z,8.02
2017-10-15T06:39:15.617Z,8.01
2017-10-15T06:41:43.216Z,8.03
2017-10-15T06:44:10.790Z,8.04
2017-10-15T06:46:38.368Z,8.11
2017-10-15T06:49:05.908Z,8.13
2017-10-15T06:51:33.471Z,8.15
2017-10-15T06:54:01.044Z,8.27
2017-10-15T06:56:28.597Z,8.36
2017-10-15T06:58:56.502Z,8.39
2017-10-15T07:01:24.079Z,8.46
2017-10-15T07:03:52.194Z,8.54
2017-10-15T07:06:19.752Z,8.58
2017-10-15T07:08:47.346Z,8.67
2017-10-15T07:11:14.941Z,8.69
2017-10-15T07:13:42.518Z,8.75
2017-10-15T07:16:10.110Z,8.67
2017-10-15T07:18:37.794Z,8.71
2017-10-15T07:21:05.359Z,8.74
2017-10-15T07:23:33.352Z,8.77
2017-10-15T07:26:01.175Z,8.88
2017-10-15T07:28:28.762Z,8.96
2017-10-15T07:30:56.566Z,9.02
2017-10-15T07:33:24.151Z,9.04
2017-10-15T07:35:52.074Z,9.07
2017-10-15T07:38:19.655Z,9.11
2017-10-15T07:40:47.239Z,9.18
2017-10-15T07:43:14.849Z,9.18
2017-10-15T07:45:42.451Z,9.26
2017-10-15T07:48:10.236Z,9.35
2017-10-15T07:50:38.688Z,9.34
2017-10-15T07:53:06.669Z,9.40
2017-10-15T07:55:34.566Z,9.45
2017-10-15T07:58:02.142Z,9.52
2017-10-15T08:00:29.741Z,9.62
2017-10-15T08:02:57.322Z,9.71
2017-10-15T08:05:24.913Z,9.85
2017-10-15T08:07:53.179Z,9.94
2017-10-15T08:10:20.792Z,9.95
2017-10-15T08:12:48.403Z,9.97
2017-10-15T08:15:16.135Z,10.01
2017-10-15T08:17:43.764Z,10.08
2017-10-15T08:20:11.333Z,10.16
2017-10-15T08:22:39.050Z,10.25
2017-10-15T08:25:07.040Z,10.35
2017-10-15T08:27:34.646Z,10.47
2017-10-15T08:30:02.235Z,10.59
2017-10-15T08:32:29.824Z,10.73
2017-10-15T08:34:57.449Z,10.86
2017-10-15T08:37:25.034Z,10.99
2017-10-15T08:39:52.621Z,11.14
2017-10-15T08:42:20.209Z,11.27
2017-10-15T08:44:47.825Z,11.39
2017-10-15T08:47:15.424Z,11.51
2017-10-15T08:49:43.019Z,11.66
2017-10-15T08:52:11.178Z,11.79
2017-10-15T08:54:38.769Z,11.92
2017-10-15T08:57:06.892Z,12.04
2017-10-15T08:59:34.496Z,12.19
2017-10-15T09:02:02.098Z,12.33
2017-10-15T09:04:29.727Z,12.47
2017-10-15T09:06:57.331Z,12.58
2017-10-15T09:09:25.129Z,12.69
2017-10-15T09:11:52.803Z,12.80
2017-10-15T09:14:20.419Z,12.93
2017-10-15T09:16:48.004Z,13.07
2017-10-15T09:19:15.637Z,13.18
2017-10-15T09:21:43.329Z,13.33
2017-10-15T09:24:10.949Z,13.45
2017-10-15T09:26:38.543Z,13.58
2017-10-15T09:29:06.310Z,13.74
2017-10-15T09:31:33.883Z,13.87
2017-10-15T09:34:01.588Z,13.98
2017-10-15T09:36:29.202Z,14.11
2017-10-15T09:38:56.840Z,14.18
2017-10-15T09:41:24.450Z,14.25
2017-10-15T09:43:52.706Z,14.34
2017-10-15T09:46:20.332Z,14.42
2017-10-15T09:48:47.912Z,14.49
2017-10-15T09:51:15.509Z,14.56
2017-10-15T09:53:43.188Z,14.64
2017-10-15T09:56:10.824Z,14.74
2017-10-15T09:58:38.609Z,14.85
2017-10-15T10:01:06.272Z,14.99
2017-10-15T10:03:33.856Z,15.06
2017-10-15T10:06:01.483Z,15.16
2017-10-15T10:08:29.267Z,15.23
2017-10-15T10:10:56.852Z,15.27
2017-10-15T10:13:24.428Z,15.36
2017-10-15T10:15:52.002Z,15.43
2017-10-15T10:18:19.604Z,15.52
2017-10-15T10:20:47.616Z,15.61
2017-10-15T10:23:15.202Z,15.71
2017-10-15T10:25:42.798Z,15.78
2017-10-15T10:28:10.392Z,15.85
2017-10-15T10:30:38.017Z,15.96
2017-10-15T10:33:05.603Z,16.07
2017-10-15T10:35:33.212Z,16.14
2017-10-15T10:38:01.349Z,16.19
2017-10-15T10:40:29.008Z,16.28
2017-10-15T10:42:56.598Z,16.33
2017-10-15T10:45:24.180Z,16.42
2017-10-15T10:47:51.786Z,16.48
2017-10-15T10:50:19.376Z,16.56
2017-10-15T10:52:46.978Z,16.62
2017-10-15T10:55:14.650Z,16.65
2017-10-15T10:57:42.266Z,16.72
2017-10-15T11:00:09.837Z,16.72
2017-10-15T11:02:37.802Z,16.79
2017-10-15T11:05:05.404Z,16.89
2017-10-15T11:07:33.005Z,16.90
2017-10-15T11:10:00.609Z,16.96
2017-10-15T11:12:28.174Z,17.00
2017-10-15T11:14:57.063Z,17.04
2017-10-15T11:17:24.671Z,17.10
2017-10-15T11:19:52.537Z,17.16
2017-10-15T11:22:20.329Z,17.25
2017-10-15T11:24:47.900Z,17.32
2017-10-15T11:27:15.521Z,17.37
2017-10-15T11:29:43.122Z,17.39
2017-10-15T11:32:10.877Z,17.43
2017-10-15T11:34:38.454Z,17.50
2017-10-15T11:37:06.050Z,17.57
2017-10-15T11:39:33.782Z,17.64
2017-10-15T11:42:01.746Z,17.73
2017-10-15T11:44:29.308Z,17.79
2017-10-15T11:46:56.915Z,17.83
2017-10-15T11:49:24.538Z,17.88
2017-10-15T11:51:52.748Z,17.95
2017-10-15T11:54:21.349Z,17.95
2017-10-15T11:56:48.920Z,18.01
2017-10-15T11:59:16.907Z,18.09
2017-10-15T12:01:44.496Z,18.19
2017-10-15T12:04:12.506Z,18.24
2017-10-15T12:06:40.087Z,18.29
2017-10-15T12:09:07.667Z,18.28
2017-10-15T12:11:35.812Z,18.27
2017-10-15T12:14:03.412Z,18.32
2017-10-15T12:16:31.026Z,18.37
2017-10-15T12:18:58.632Z,18.44
2017-10-15T12:21:26.234Z,18.49
2017-10-15T12:23:53.813Z,18.56
2017-10-15T12:26:21.420Z,18.60
2017-10-15T12:28:49.383Z,18.60
2017-10-15T12:31:16.962Z,18.64
2017-10-15T12:33:44.905Z,18.67
2017-10-15T12:36:12.484Z,18.69
2017-10-15T12:38:40.059Z,18.70
2017-10-15T12:41:07.643Z,18.79
2017-10-15T12:43:35.440Z,18.83
2017-10-15T12:46:03.033Z,18.86
2017-10-15T12:48:30.613Z,18.87
2017-10-15T12:50:58.424Z,18.92
2017-10-15T12:53:26.123Z,18.96
2017-10-15T12:55:53.755Z,19.02
2017-10-15T12:58:21.306Z,19.07
2017-10-15T13:00:48.924Z,19.13
2017-10-15T13:03:16.517Z,19.20
2017-10-15T13:05:44.089Z,19.23
2017-10-15T13:08:11.678Z,19.24
2017-10-15T13:10:39.291Z,19.26
2017-10-15T13:13:06.896Z,19.32
2017-10-15T13:15:34.474Z,19.37
2017-10-15T13:18:02.102Z,19.40
2017-10-15T13:20:29.673Z,19.50
2017-10-15T13:22:57.260Z,19.61
2017-10-15T13:25:25.259Z,19.62
2017-10-15T13:27:52.831Z,19.62
2017-10-15T13:30:20.450Z,19.69
2017-10-15T13:32:48.017Z,19.71
2017-10-15T13:35:15.981Z,19.71
2017-10-15T13:37:43.554Z,19.67
2017-10-15T13:40:11.174Z,19.65
2017-10-15T13:42:38.867Z,19.64
2017-10-15T13:45:06.556Z,19.62
2017-10-15T13:47:34.134Z,19.62
2017-10-15T13:50:01.724Z,19.69
2017-10-15T13:52:29.307Z,19.76
2017-10-15T13:54:56.907Z,19.80
2017-10-15T13:57:24.514Z,19.82
2017-10-15T13:59:52.089Z,19.89
2017-10-15T14:02:19.665Z,19.95
2017-10-15T14:04:47.209Z,19.99
2017-10-15T14:07:15.191Z,20.05
2017-10-15T14:09:42.796Z,20.09
2017-10-15T14:12:10.439Z,20.15
2017-10-15T14:14:38.041Z,20.19
2017-10-15T14:17:06.419Z,20.23
2017-10-15T14:19:34.873Z,20.33
2017-10-15T14:22:02.552Z,20.42
2017-10-15T14:24:30.134Z,20.43
2017-10-15T14:26:57.700Z,20.42
2017-10-15T14:29:25.655Z,20.49
2017-10-15T14:31:53.233Z,20.57
2017-10-15T14:34:21.004Z,20.69
2017-10-15T14:36:48.589Z,20.92
2017-10-15T14:39:16.268Z,21.16
2017-10-15T14:41:43.864Z,21.48
2017-10-15T14:44:11.614Z,21.68
2017-10-15T14:46:39.597Z,21.77
2017-10-15T14:49:07.284Z,22.00
2017-10-15T14:51:35.454Z,22.20
2017-10-15T14:54:03.214Z,22.38
2017-10-15T14:56:31.234Z,22.36
2017-10-15T14:58:58.827Z,22.26
2017-10-15T15:01:26.495Z,22.27
2017-10-15T15:03:54.103Z,22.27
2017-10-15T15:06:21.699Z,22.13
2017-10-15T15:08:49.335Z,22.03
2017-10-15T15:11:17.657Z,21.91
2017-10-15T15:13:45.221Z,21.84
2017-10-15T15:16:12.820Z,21.68
2017-10-15T15:18:40.432Z,21.54
2017-10-15T15:21:13.065Z,21.46
2017-10-15T15:23:40.641Z,21.29
2017-10-15T15:26:08.648Z,21.07
2017-10-15T15:28:36.276Z,20.89
2017-10-15T15:31:03.867Z,20.73
2017-10-15T15:33:32.023Z,20.58
2017-10-15T15:36:01.068Z,20.47
2017-10-15T15:38:28.703Z,20.36
2017-10-15T15:40:56.328Z,20.25
2017-10-15T15:43:23.943Z,20.16
2017-10-15T15:45:51.563Z,20.05
2017-10-15T15:48:19.179Z,19.95
2017-10-15T15:50:46.782Z,19.84
2017-10-15T15:53:14.424Z,19.74
2017-10-15T15:55:41.990Z,19.67
2017-10-15T15:58:10.474Z,19.58
2017-10-15T16:00:39.401Z,19.49
2017-10-15T16:16:12.203Z,18.87
2017-10-15T16:18:39.766Z,18.75
2017-10-15T16:21:07.385Z,18.65
2017-10-15T16:23:36.210Z,18.57
2017-10-15T16:26:03.916Z,18.48
2017-10-15T16:28:31.549Z,18.41
2017-10-15T16:31:01.000Z,18.33
2017-10-15T16:33:29.928Z,18.27
2017-10-15T16:35:57.517Z,18.19
2017-10-15T16:38:25.098Z,18.07
2017-10-15T16:40:53.437Z,17.96
2017-10-15T16:43:22.271Z,17.86
2017-10-15T16:45:49.916Z,17.74
2017-10-15T16:48:17.576Z,17.60
2017-10-15T16:50:45.185Z,17.46
2017-10-15T16:53:12.960Z,17.34
2017-10-15T16:55:40.713Z,17.23
2017-10-15T16:58:08.357Z,17.13
2017-10-15T17:00:35.965Z,17.01
2017-10-15T17:03:03.637Z,16.91
2017-10-15T17:05:31.703Z,16.82
2017-10-15T17:07:59.517Z,16.74
2017-10-15T17:10:27.199Z,16.65
2017-10-15T17:12:54.949Z,16.58
2017-10-15T17:19:27.627Z,16.31
2017-10-15T17:21:55.299Z,16.23
2017-10-15T17:25:22.594Z,16.10
2017-10-15T17:27:50.302Z,16.01
2017-10-15T17:30:18.180Z,15.92
2017-10-15T17:32:46.051Z,15.82
2017-10-15T17:35:13.842Z,15.74
2017-10-15T17:37:41.633Z,15.66
2017-10-15T17:40:09.587Z,15.59
2017-10-15T17:42:37.392Z,15.54
2017-10-15T17:45:05.205Z,15.48
2017-10-15T17:47:33.426Z,15.42
2017-10-15T17:50:01.383Z,15.35
2017-10-15T17:52:29.302Z,15.30
2017-10-15T17:54:57.175Z,15.23
2017-10-15T17:57:25.141Z,15.18
2017-10-15T17:59:53.105Z,15.11
2017-10-15T18:02:31.031Z,15.06
2017-10-15T18:04:58.883Z,15.00
2017-10-15T18:07:26.797Z,14.93
2017-10-15T18:09:54.617Z,14.85
2017-10-15T18:12:22.459Z,14.78
2017-10-15T18:14:50.348Z,14.70
2017-10-15T18:17:18.229Z,14.63
2017-10-15T18:19:46.184Z,14.56
2017-10-15T18:22:14.047Z,14.48
2017-10-15T18:24:42.022Z,14.38
2017-10-15T18:27:10.211Z,14.31
2017-10-15T18:29:38.168Z,14.21
2017-10-15T18:32:06.729Z,14.15
2017-10-15T18:34:34.727Z,14.10
2017-10-15T18:37:02.691Z,14.05
2017-10-15T18:39:30.888Z,14.02
2017-10-15T18:41:59.422Z,13.99
2017-10-15T18:44:27.422Z,13.93
2017-10-15T18:46:55.347Z,13.88
2017-10-15T18:49:23.358Z,13.84
2017-10-15T18:51:52.070Z,13.78
2017-10-15T18:54:20.120Z,13.70
2017-10-15T18:56:50.440Z,13.66
2017-10-15T18:59:21.420Z,13.61
2017-10-15T19:01:49.574Z,13.58
2017-10-15T19:04:17.545Z,13.55
2017-10-15T19:06:45.487Z,13.50
2017-10-15T19:09:14.188Z,13.46
2017-10-15T19:11:42.189Z,13.44
2017-10-15T19:14:10.228Z,13.39
2017-10-15T19:16:38.194Z,13.36
2017-10-15T19:19:06.241Z,13.33
2017-10-15T19:21:34.241Z,13.29
2017-10-15T19:24:02.202Z,13.25
2017-10-15T19:29:02.765Z,13.17
2017-10-15T19:31:31.237Z,13.10
2017-10-15T19:34:00.630Z,13.07
2017-10-15T19:36:28.639Z,13.05
2017-10-15T19:38:57.600Z,13.01
2017-10-15T19:41:25.581Z,12.97
2017-10-15T19:43:53.591Z,12.91
2017-10-15T19:46:21.605Z,12.84
2017-10-15T19:48:50.863Z,12.76
2017-10-15T19:51:19.764Z,12.72
2017-10-15T19:53:49.001Z,12.66
2017-10-15T19:56:17.792Z,12.61
2017-10-15T19:58:45.758Z,12.56
2017-10-15T20:01:13.749Z,12.54
2017-10-15T20:03:42.496Z,12.55
2017-10-15T20:06:10.391Z,12.55
2017-10-15T20:08:38.464Z,12.52
2017-10-15T20:24:12.868Z,12.37
2017-10-15T20:26:40.709Z,12.34
2017-10-15T20:29:09.008Z,12.29
2017-10-15T20:31:36.871Z,12.24
2017-10-15T20:34:04.714Z,12.20
2017-10-15T20:36:32.518Z,12.16
2017-10-15T20:39:00.269Z,12.11
2017-10-15T20:41:28.042Z,12.08
2017-10-15T20:43:55.784Z,12.04
2017-10-15T20:46:23.636Z,11.98
2017-10-15T20:48:51.531Z,11.92
2017-10-15T20:51:19.289Z,11.85
2017-10-15T20:53:46.966Z,11.82
2017-10-15T20:56:14.646Z,11.78
2017-10-15T20:58:42.279Z,11.73
2017-10-15T21:01:09.966Z,11.69
2017-10-15T21:03:37.572Z,11.68
2017-10-15T21:06:05.148Z,11.66
2017-10-15T21:08:32.701Z,11.66
2017-10-15T21:11:00.282Z,11.64
2017-10-15T21:13:27.873Z,11.62
2017-10-15T21:15:55.435Z,11.57
2017-10-15T21:18:23.039Z,11.53
2017-10-15T21:20:50.628Z,11.47
2017-10-15T21:23:18.230Z,11.44
2017-10-15T21:25:45.824Z,11.41
2017-10-15T21:28:13.399Z,11.37
2017-10-15T21:30:40.972Z,11.33
2017-10-15T21:33:08.537Z,11.32
2017-10-15T21:35:36.132Z,11.31
2017-10-15T21:38:03.854Z,11.31
2017-10-15T21:40:31.452Z,11.31
2017-10-15T21:42:59.007Z,11.29
2017-10-15T21:45:26.616Z,11.27
2017-10-15T21:47:54.180Z,11.25
2017-10-15T21:50:21.778Z,11.23
2017-10-15T21:52:49.341Z,11.20
2017-10-15T21:55:16.984Z,11.17
2017-10-15T21:57:44.560Z,11.16
2017-10-15T22:00:12.124Z,11.14
2017-10-15T22:02:39.798Z,11.10
2017-10-15T22:05:07.357Z,11.07
2017-10-15T22:07:34.954Z,11.03
2017-10-15T22:10:02.510Z,11.02
2017-10-15T22:12:30.391Z,11.02
2017-10-15T22:14:58.203Z,10.99
2017-10-15T22:17:26.178Z,10.98
2017-10-15T22:19:53.775Z,10.97
2017-10-15T22:22:25.389Z,10.94
2017-10-15T22:24:52.990Z,10.94
2017-10-15T22:27:20.537Z,10.91
2017-10-15T22:29:48.133Z,10.88
2017-10-15T22:32:15.705Z,10.84
2017-10-15T22:34:43.322Z,10.80
2017-10-15T22:37:11.075Z,10.75
2017-10-15T22:39:38.999Z,10.71
2017-10-15T22:42:06.569Z,10.66
2017-10-15T22:44:34.143Z,10.61
2017-10-15T22:47:01.731Z,10.50
2017-10-15T22:49:29.296Z,10.47
2017-10-15T22:51:56.932Z,10.44
2017-10-15T22:54:24.514Z,10.39
2017-10-15T22:56:52.111Z,10.36
2017-10-15T22:59:19.684Z,10.37
2017-10-15T23:01:47.365Z,10.38
2017-10-15T23:04:14.944Z,10.38
2017-10-15T23:06:42.540Z,10.37
2017-10-15T23:09:10.111Z,10.36
2017-10-15T23:11:37.660Z,10.35
2017-10-15T23:14:05.286Z,10.32
2017-10-15T23:16:32.833Z,10.31
2017-10-15T23:19:00.396Z,10.27
2017-10-15T23:21:27.955Z,10.27
2017-10-15T23:23:55.545Z,10.26
2017-10-15T23:26:23.107Z,10.26
2017-10-15T23:28:51.009Z,10.25
2017-10-15T23:31:19.490Z,10.18
2017-10-15T23:33:47.052Z,10.09
2017-10-15T23:36:14.640Z,9.92
2017-10-15T23:38:42.213Z,9.82
2017-10-15T23:41:09.815Z,9.77
2017-10-15T23:43:37.364Z,9.66
2017-10-15T23:46:04.950Z,9.61
2017-10-15T23:48:32.601Z,9.60
2017-10-15T23:51:00.180Z,9.56
2017-10-15T23:53:27.760Z,9.56
2017-10-15T23:55:55.377Z,9.58
2017-10-15T23:58:22.970Z,9.61
